createdAt,value
2022-11-08T00:02:21.453Z,11.92
2022-11-08T00:04:48.057Z,11.92
2022-11-08T00:07:33.002Z,11.97
2022-11-08T00:10:18.003Z,11.99
2022-11-08T00:13:03.183Z,11.97
2022-11-08T00:15:33.394Z,11.99
2022-11-08T00:17:59.952Z,12.03
2022-11-08T00:20:26.464Z,12.05
2022-11-08T00:22:53.001Z,12.03
2022-11-08T00:25:19.517Z,12.03
2022-11-08T00:27:46.036Z,12.01
2022-11-08T00:30:12.722Z,11.99
2022-11-08T00:32:39.623Z,11.96
2022-11-08T00:35:06.734Z,11.94
2022-11-08T00:37:33.266Z,11.94
2022-11-08T00:39:59.779Z,11.93
2022-11-08T00:42:26.345Z,11.90
2022-11-08T00:44:52.889Z,11.87
2022-11-08T00:47:19.378Z,11.85
2022-11-08T00:49:45.908Z,11.84
2022-11-08T00:52:12.397Z,11.82
2022-11-08T00:54:38.922Z,11.81
2022-11-08T00:57:05.473Z,11.78
2022-11-08T00:59:32.062Z,11.76
2022-11-08T01:01:58.634Z,11.74
2022-11-08T01:04:25.386Z,11.71
2022-11-08T01:06:51.886Z,11.67
2022-11-08T01:09:18.416Z,11.64
2022-11-08T01:11:46.703Z,11.61
2022-11-08T01:14:14.672Z,11.62
2022-11-08T01:16:41.945Z,11.59
2022-11-08T01:19:08.556Z,11.57
2022-11-08T01:21:35.425Z,11.53
2022-11-08T01:24:01.990Z,11.54
2022-11-08T01:26:29.715Z,11.52
2022-11-08T01:28:57.839Z,11.50
2022-11-08T01:31:30.686Z,11.48
2022-11-08T01:33:58.619Z,11.45
2022-11-08T01:36:26.788Z,11.45
2022-11-08T01:38:54.207Z,11.41
2022-11-08T01:41:23.588Z,11.39
2022-11-08T01:44:00.090Z,11.39
2022-11-08T01:46:43.683Z,11.35
2022-11-08T01:49:54.630Z,11.34
2022-11-08T01:52:29.198Z,11.33
2022-11-08T01:55:08.613Z,11.30
2022-11-08T01:57:49.516Z,11.27
2022-11-08T02:00:17.640Z,11.25
2022-11-08T02:02:49.858Z,11.23
2022-11-08T02:05:27.618Z,11.24
2022-11-08T02:08:12.579Z,11.24
2022-11-08T02:10:42.447Z,11.24
2022-11-08T02:13:14.908Z,11.26
2022-11-08T02:15:42.880Z,11.27
2022-11-08T02:18:10.481Z,11.31
2022-11-08T02:20:37.316Z,11.33
2022-11-08T02:23:14.425Z,11.32
2022-11-08T02:25:40.976Z,11.33
2022-11-08T02:28:07.621Z,11.35
2022-11-08T02:30:35.401Z,11.37
2022-11-08T02:33:18.724Z,11.37
2022-11-08T02:35:49.942Z,11.38
2022-11-08T02:38:17.467Z,11.41
2022-11-08T02:40:52.064Z,11.40
2022-11-08T02:43:18.908Z,11.41
2022-11-08T02:45:45.765Z,11.44
2022-11-08T02:48:13.042Z,11.46
2022-11-08T02:50:39.969Z,11.48
2022-11-08T02:53:08.505Z,11.50
2022-11-08T02:55:35.476Z,11.50
2022-11-08T02:58:02.261Z,11.51
2022-11-08T03:00:29.826Z,11.51
2022-11-08T03:02:57.679Z,11.52
2022-11-08T03:05:25.958Z,11.52
2022-11-08T03:07:53.689Z,11.52
2022-11-08T03:10:21.489Z,11.53
2022-11-08T03:12:54.518Z,11.51
2022-11-08T03:15:21.016Z,11.54
2022-11-08T03:17:47.492Z,11.54
2022-11-08T03:20:14.002Z,11.55
2022-11-08T03:22:40.507Z,11.54
2022-11-08T03:25:07.614Z,11.52
2022-11-08T03:27:34.084Z,11.50
2022-11-08T03:30:00.617Z,11.48
2022-11-08T03:32:27.116Z,11.45
2022-11-08T03:34:53.659Z,11.43
2022-11-08T03:37:20.214Z,11.40
2022-11-08T03:39:46.708Z,11.39
2022-11-08T03:42:13.223Z,11.36
2022-11-08T03:44:39.732Z,11.33
2022-11-08T03:47:06.230Z,11.30
2022-11-08T03:49:32.740Z,11.27
2022-11-08T03:51:59.198Z,11.26
2022-11-08T03:54:25.719Z,11.25
2022-11-08T03:56:52.219Z,11.21
2022-11-08T03:59:18.706Z,11.19
2022-11-08T04:01:45.291Z,11.16
2022-11-08T04:04:11.917Z,11.14
2022-11-08T04:06:39.434Z,11.14
2022-11-08T04:09:06.350Z,11.12
2022-11-08T04:11:51.459Z,11.10
2022-11-08T04:14:36.419Z,11.06
2022-11-08T04:17:02.992Z,11.01
2022-11-08T04:19:47.828Z,10.99
2022-11-08T04:22:14.398Z,10.94
2022-11-08T04:24:40.961Z,10.94
2022-11-08T04:27:07.502Z,10.92
2022-11-08T04:29:34.074Z,10.88
2022-11-08T04:32:00.553Z,10.86
2022-11-08T04:34:27.138Z,10.84
2022-11-08T04:36:54.354Z,10.81
2022-11-08T04:39:20.915Z,10.77
2022-11-08T04:41:47.412Z,10.74
2022-11-08T04:44:15.643Z,10.69
2022-11-08T04:46:42.164Z,10.68
2022-11-08T04:49:08.962Z,10.66
2022-11-08T04:51:35.816Z,10.63
2022-11-08T04:54:05.055Z,10.60
2022-11-08T04:56:32.248Z,10.59
2022-11-08T04:59:00.135Z,10.56
2022-11-08T05:01:31.097Z,10.50
2022-11-08T05:03:58.320Z,10.47
2022-11-08T05:06:28.051Z,10.44
2022-11-08T05:08:56.155Z,10.43
2022-11-08T05:11:25.141Z,10.44
2022-11-08T05:13:52.484Z,10.43
2022-11-08T05:16:30.367Z,10.40
2022-11-08T05:18:57.237Z,10.36
2022-11-08T05:21:43.515Z,10.36
2022-11-08T05:24:12.993Z,10.33
2022-11-08T05:26:42.864Z,10.31
2022-11-08T05:29:09.924Z,10.30
2022-11-08T05:31:36.480Z,10.27
2022-11-08T05:34:03.426Z,10.25
2022-11-08T05:36:30.199Z,10.21
2022-11-08T05:38:57.157Z,10.22
2022-11-08T05:41:25.256Z,10.19
2022-11-08T05:43:54.306Z,10.16
2022-11-08T05:46:22.658Z,10.13
2022-11-08T05:48:49.661Z,10.13
2022-11-08T05:51:18.342Z,10.15
2022-11-08T05:53:46.924Z,10.12
2022-11-08T05:56:13.410Z,10.08
2022-11-08T05:58:39.974Z,10.03
2022-11-08T06:01:14.666Z,9.98
2022-11-08T06:03:41.568Z,9.95
2022-11-08T06:06:11.742Z,9.94
2022-11-08T06:08:39.068Z,9.93
2022-11-08T06:11:07.659Z,9.91
2022-11-08T06:13:34.902Z,9.88
2022-11-08T06:16:03.064Z,9.87
2022-11-08T06:18:30.599Z,9.87
2022-11-08T06:21:02.431Z,9.86
2022-11-08T06:23:29.476Z,9.84
2022-11-08T06:25:56.147Z,9.82
2022-11-08T06:28:23.032Z,9.80
2022-11-08T06:30:50.081Z,9.77
2022-11-08T06:33:17.214Z,9.74
2022-11-08T06:35:43.975Z,9.73
2022-11-08T06:38:10.474Z,9.73
2022-11-08T06:40:38.280Z,9.72
2022-11-08T06:43:05.089Z,9.70
2022-11-08T06:45:32.293Z,9.69
2022-11-08T06:48:00.210Z,9.70
2022-11-08T06:50:27.858Z,9.67
2022-11-08T06:53:02.388Z,9.67
2022-11-08T06:55:29.907Z,9.66
2022-11-08T06:57:56.726Z,9.64
2022-11-08T07:00:24.054Z,9.63
2022-11-08T07:02:57.964Z,9.65
2022-11-08T07:05:25.953Z,9.66
2022-11-08T07:07:52.562Z,9.66
2022-11-08T07:10:21.206Z,9.65
2022-11-08T07:12:48.646Z,9.67
2022-11-08T07:15:15.577Z,9.68
2022-11-08T07:17:42.084Z,9.67
2022-11-08T07:20:09.542Z,9.66
2022-11-08T07:22:36.069Z,9.64
2022-11-08T07:25:02.667Z,9.64
2022-11-08T07:27:29.143Z,9.66
2022-11-08T07:29:55.692Z,9.65
2022-11-08T07:32:22.160Z,9.67
2022-11-08T07:34:48.689Z,9.69
2022-11-08T07:37:15.197Z,9.69
2022-11-08T07:39:41.718Z,9.69
2022-11-08T07:42:08.257Z,9.73
2022-11-08T07:44:34.718Z,9.73
2022-11-08T07:47:01.232Z,9.74
2022-11-08T07:49:27.717Z,9.78
2022-11-08T07:51:54.218Z,9.80
2022-11-08T07:54:20.684Z,9.82
2022-11-08T07:56:47.181Z,9.85
2022-11-08T07:59:13.693Z,9.85
2022-11-08T08:01:40.247Z,9.87
2022-11-08T08:04:06.833Z,9.91
2022-11-08T08:06:33.747Z,9.92
2022-11-08T08:09:01.065Z,9.98
2022-11-08T08:11:33.350Z,9.99
2022-11-08T08:14:00.265Z,10.01
2022-11-08T08:16:26.799Z,10.04
2022-11-08T08:18:56.435Z,10.09
2022-11-08T08:21:23.782Z,10.11
2022-11-08T08:23:50.344Z,10.12
2022-11-08T08:26:16.860Z,10.16
2022-11-08T08:28:43.367Z,10.19
2022-11-08T08:31:09.924Z,10.24
2022-11-08T08:33:37.873Z,10.27
2022-11-08T08:36:05.110Z,10.32
2022-11-08T08:38:33.423Z,10.34
2022-11-08T08:41:01.025Z,10.38
2022-11-08T08:43:28.993Z,10.44
2022-11-08T08:45:59.666Z,10.49
2022-11-08T08:48:26.156Z,10.50
2022-11-08T08:50:52.709Z,10.58
2022-11-08T08:53:19.602Z,10.64
2022-11-08T08:55:48.066Z,10.67
2022-11-08T08:58:14.789Z,10.70
2022-11-08T09:03:28.077Z,10.78
2022-11-08T09:05:57.448Z,10.84
2022-11-08T09:08:24.796Z,10.89
2022-11-08T09:10:55.863Z,10.97
2022-11-08T09:13:23.136Z,10.99
2022-11-08T09:15:49.728Z,11.07
2022-11-08T09:18:17.216Z,11.10
2022-11-08T09:20:47.478Z,11.17
2022-11-08T09:23:17.054Z,11.22
2022-11-08T09:25:43.767Z,11.24
2022-11-08T09:28:10.466Z,11.29
2022-11-08T09:30:36.956Z,11.34
2022-11-08T09:33:03.811Z,11.38
2022-11-08T09:35:30.615Z,11.42
2022-11-08T09:37:57.968Z,11.44
2022-11-08T09:40:33.211Z,11.48
2022-11-08T09:43:37.155Z,11.52
2022-11-08T09:46:03.743Z,11.58
2022-11-08T09:48:35.517Z,11.60
2022-11-08T09:51:24.067Z,11.65
2022-11-08T09:53:59.642Z,11.68
2022-11-08T09:56:35.571Z,11.73
2022-11-08T09:59:14.298Z,11.75
2022-11-08T10:01:41.030Z,11.80
2022-11-08T10:04:19.380Z,11.84
2022-11-08T10:07:19.768Z,11.88
2022-11-08T10:10:01.527Z,11.98
2022-11-08T10:12:55.132Z,12.00
2022-11-08T10:15:34.529Z,12.06
2022-11-08T10:18:10.476Z,12.11
2022-11-08T10:21:00.679Z,12.15
2022-11-08T10:23:55.430Z,12.19
2022-11-08T10:26:28.317Z,12.25
2022-11-08T10:29:22.161Z,12.36
2022-11-08T10:31:56.255Z,12.38
2022-11-08T10:34:27.128Z,12.45
2022-11-08T10:37:03.269Z,12.52
2022-11-08T10:39:37.208Z,12.55
2022-11-08T10:42:17.009Z,12.61
2022-11-08T10:44:44.197Z,12.69
2022-11-08T10:47:23.921Z,12.74
2022-11-08T10:49:50.661Z,12.79
2022-11-08T10:52:32.102Z,12.87
2022-11-08T10:54:59.855Z,12.93
2022-11-08T10:57:38.845Z,12.98
2022-11-08T11:00:20.626Z,13.04
2022-11-08T11:02:58.967Z,13.09
2022-11-08T11:05:57.678Z,13.15
2022-11-08T11:08:24.897Z,13.24
2022-11-08T11:10:51.834Z,13.27
2022-11-08T11:13:18.351Z,13.36
2022-11-08T11:15:57.376Z,13.40
2022-11-08T11:18:26.061Z,13.47
2022-11-08T11:21:17.880Z,13.56
2022-11-08T11:23:47.570Z,13.63
2022-11-08T11:26:45.771Z,13.70
2022-11-08T11:29:22.218Z,13.75
2022-11-08T11:31:51.603Z,13.82
2022-11-08T11:34:18.070Z,13.84
2022-11-08T11:36:50.990Z,13.86
2022-11-08T11:39:36.943Z,13.88
2022-11-08T11:42:44.374Z,13.93
2022-11-08T11:45:28.388Z,13.93
2022-11-08T11:48:03.537Z,13.90
2022-11-08T11:50:34.124Z,13.90
2022-11-08T11:53:04.976Z,13.95
2022-11-08T11:55:45.633Z,13.93
2022-11-08T11:58:30.436Z,13.94
2022-11-08T12:01:02.969Z,13.95
2022-11-08T12:03:47.771Z,13.94
2022-11-08T12:06:25.720Z,13.93
2022-11-08T12:09:01.437Z,13.96
2022-11-08T12:11:44.388Z,13.95
2022-11-08T12:14:43.271Z,13.98
2022-11-08T12:17:37.442Z,13.96
2022-11-08T12:20:11.344Z,13.97
2022-11-08T12:22:45.960Z,13.98
2022-11-08T12:25:18.641Z,13.97
2022-11-08T12:28:20.260Z,13.97
2022-11-08T12:31:08.042Z,14.02
2022-11-08T12:33:58.052Z,14.01
2022-11-08T12:36:46.216Z,14.01
2022-11-08T12:39:34.291Z,13.99
2022-11-08T12:42:14.559Z,14.02
2022-11-08T12:44:59.811Z,14.04
2022-11-08T12:47:46.155Z,14.06
2022-11-08T12:50:25.829Z,14.05
2022-11-08T12:52:52.308Z,14.10
2022-11-08T12:55:32.796Z,14.11
2022-11-08T12:58:06.028Z,14.10
2022-11-08T13:00:35.775Z,14.11
2022-11-08T13:03:30.771Z,14.14
2022-11-08T13:06:12.722Z,14.15
2022-11-08T13:09:05.714Z,14.14
2022-11-08T13:11:56.741Z,14.18
2022-11-08T13:14:24.284Z,14.17
2022-11-08T13:17:09.120Z,14.15
2022-11-08T13:19:47.734Z,14.17
2022-11-08T13:22:29.213Z,14.17
2022-11-08T13:24:56.829Z,14.17
2022-11-08T13:27:39.762Z,14.20
2022-11-08T13:30:12.033Z,14.21
2022-11-08T13:32:46.548Z,14.17
2022-11-08T13:35:28.262Z,14.18
2022-11-08T13:38:19.920Z,14.16
2022-11-08T13:41:11.884Z,14.18
2022-11-08T13:43:39.225Z,14.15
2022-11-08T13:46:25.877Z,14.11
2022-11-08T13:48:58.460Z,14.12
2022-11-08T13:51:32.591Z,14.12
2022-11-08T13:54:24.073Z,14.10
2022-11-08T13:56:52.906Z,14.13
2022-11-08T13:59:31.613Z,14.14
2022-11-08T14:02:01.013Z,14.11
2022-11-08T14:04:34.840Z,14.09
2022-11-08T14:07:10.221Z,14.09
2022-11-08T14:09:50.673Z,14.09
2022-11-08T14:12:53.922Z,14.09
2022-11-08T14:15:46.490Z,14.08
2022-11-08T14:18:39.133Z,14.06
2022-11-08T14:21:07.595Z,14.03
2022-11-08T14:23:36.527Z,14.03
2022-11-08T14:26:13.880Z,14.04
2022-11-08T14:28:43.414Z,14.03
2022-11-08T14:31:26.388Z,14.04
2022-11-08T14:33:54.249Z,14.03
2022-11-08T14:36:22.330Z,14.04
2022-11-08T14:39:04.165Z,14.05
2022-11-08T14:41:33.316Z,14.03
2022-11-08T14:44:01.813Z,14.00
2022-11-08T14:46:37.170Z,14.00
2022-11-08T14:49:10.572Z,13.97
2022-11-08T14:51:37.083Z,14.00
2022-11-08T14:54:03.682Z,13.98
2022-11-08T14:56:38.150Z,13.96
2022-11-08T14:59:06.989Z,13.92
2022-11-08T15:01:35.332Z,13.92
2022-11-08T15:04:13.607Z,13.89
2022-11-08T15:06:45.732Z,13.91
2022-11-08T15:09:20.673Z,13.88
2022-11-08T15:11:54.431Z,13.86
2022-11-08T15:14:24.060Z,13.79
2022-11-08T15:16:54.597Z,13.78
2022-11-08T15:19:29.969Z,13.78
2022-11-08T15:21:58.410Z,13.76
2022-11-08T15:24:35.735Z,13.74
2022-11-08T15:27:15.737Z,13.77
2022-11-08T15:30:03.091Z,13.73
2022-11-08T15:32:37.333Z,13.77
2022-11-08T15:35:05.246Z,13.80
2022-11-08T15:37:37.786Z,13.80
2022-11-08T15:40:28.380Z,13.81
2022-11-08T15:42:54.898Z,13.83
2022-11-08T15:45:32.281Z,13.83
2022-11-08T15:48:08.244Z,13.85
2022-11-08T15:50:34.944Z,13.89
2022-11-08T15:53:04.217Z,13.85
2022-11-08T15:55:39.823Z,13.86
2022-11-08T15:58:16.305Z,13.85
2022-11-08T16:00:48.065Z,13.88
2022-11-08T16:03:14.846Z,13.88
2022-11-08T16:05:41.539Z,13.86
2022-11-08T16:08:08.080Z,13.86
2022-11-08T16:10:37.209Z,13.87
2022-11-08T16:13:05.088Z,13.86
2022-11-08T16:15:34.258Z,13.84
2022-11-08T16:18:02.525Z,13.87
2022-11-08T16:20:36.753Z,13.85
2022-11-08T16:23:06.178Z,13.87
2022-11-08T16:25:41.665Z,13.88
2022-11-08T16:28:19.798Z,13.89
2022-11-08T16:30:47.712Z,13.88
2022-11-08T16:33:25.302Z,13.88
2022-11-08T16:35:55.139Z,13.85
2022-11-08T16:38:28.817Z,13.84
2022-11-08T16:40:55.877Z,13.84
2022-11-08T16:43:22.435Z,13.82
2022-11-08T16:46:06.351Z,13.80
2022-11-08T16:48:35.990Z,13.76
2022-11-08T16:51:04.940Z,13.73
2022-11-08T16:53:32.425Z,13.73
2022-11-08T16:55:59.304Z,13.71
2022-11-08T16:58:27.955Z,13.69
2022-11-08T17:00:55.831Z,13.68
2022-11-08T17:03:25.081Z,13.60
2022-11-08T17:05:53.826Z,13.55
2022-11-08T17:08:20.814Z,13.54
2022-11-08T17:10:47.898Z,13.52
2022-11-08T17:13:15.866Z,13.51
2022-11-08T17:15:42.516Z,13.48
2022-11-08T17:18:14.507Z,13.50
2022-11-08T17:20:41.500Z,13.49
2022-11-08T17:23:09.124Z,13.45
2022-11-08T17:25:37.950Z,13.45
2022-11-08T17:28:04.717Z,13.45
2022-11-08T17:30:31.326Z,13.45
2022-11-08T17:32:58.291Z,13.43
2022-11-08T17:35:24.809Z,13.41
2022-11-08T17:37:53.339Z,13.40
2022-11-08T17:40:20.223Z,13.37
2022-11-08T17:42:46.722Z,13.35
2022-11-08T17:45:13.718Z,13.35
2022-11-08T17:47:42.306Z,13.33
2022-11-08T17:50:10.054Z,13.31
2022-11-08T17:52:36.800Z,13.30
2022-11-08T17:55:03.962Z,13.28
2022-11-08T17:57:30.485Z,13.28
2022-11-08T17:59:57.180Z,13.28
2022-11-08T18:02:23.794Z,13.28
2022-11-08T18:04:50.378Z,13.25
2022-11-08T18:07:16.906Z,13.21
2022-11-08T18:09:43.467Z,13.21
2022-11-08T18:12:09.983Z,13.18
2022-11-08T18:14:36.516Z,13.14
2022-11-08T18:17:05.094Z,13.12
2022-11-08T18:19:31.736Z,13.11
2022-11-08T18:22:00.238Z,13.08
2022-11-08T18:24:26.798Z,13.07
2022-11-08T18:26:53.722Z,13.10
2022-11-08T18:29:20.430Z,13.06
2022-11-08T18:31:46.924Z,13.05
2022-11-08T18:34:13.483Z,13.05
2022-11-08T18:36:40.019Z,13.00
2022-11-08T18:39:06.499Z,12.97
2022-11-08T18:41:33.912Z,12.97
2022-11-08T18:44:01.439Z,12.97
2022-11-08T18:46:32.978Z,12.94
2022-11-08T18:48:59.796Z,12.94
2022-11-08T18:51:26.563Z,12.93
2022-11-08T18:53:53.527Z,12.91
2022-11-08T18:56:21.042Z,12.87
2022-11-08T18:58:47.600Z,12.89
2022-11-08T19:01:14.888Z,12.91
2022-11-08T19:03:41.807Z,12.93
2022-11-08T19:06:08.575Z,12.94
2022-11-08T19:08:36.769Z,12.95
2022-11-08T19:11:07.938Z,12.96
2022-11-08T19:13:36.952Z,12.95
2022-11-08T19:16:15.616Z,12.95
2022-11-08T19:18:42.960Z,12.93
2022-11-08T19:21:15.019Z,12.90
2022-11-08T19:23:42.400Z,12.95
2022-11-08T19:26:29.456Z,12.92
2022-11-08T19:28:57.644Z,12.95
2022-11-08T19:31:25.740Z,12.95
2022-11-08T19:33:54.002Z,12.93
2022-11-08T19:36:27.085Z,12.93
2022-11-08T19:38:54.929Z,12.94
2022-11-08T19:41:23.828Z,12.94
2022-11-08T19:43:50.659Z,12.92
2022-11-08T19:46:20.314Z,12.91
2022-11-08T19:48:49.303Z,12.90
2022-11-08T19:51:20.900Z,12.90
2022-11-08T19:53:47.815Z,12.89
2022-11-08T19:56:17.097Z,12.87
2022-11-08T19:58:44.348Z,12.85
2022-11-08T20:01:15.022Z,12.82
2022-11-08T20:03:42.139Z,12.80
2022-11-08T20:06:09.841Z,12.80
2022-11-08T20:08:37.145Z,12.78
2022-11-08T20:11:21.225Z,12.77
2022-11-08T20:13:47.823Z,12.74
2022-11-08T20:16:14.298Z,12.73
2022-11-08T20:18:41.095Z,12.70
2022-11-08T20:21:09.150Z,12.72
2022-11-08T20:23:36.629Z,12.71
2022-11-08T20:26:07.975Z,12.72
2022-11-08T20:28:36.335Z,12.66
2022-11-08T20:31:10.870Z,12.61
2022-11-08T20:33:40.333Z,12.57
2022-11-08T20:36:10.786Z,12.56
2022-11-08T20:38:37.848Z,12.57
2022-11-08T20:41:06.163Z,12.59
2022-11-08T20:43:33.033Z,12.59
2022-11-08T20:46:07.749Z,12.56
2022-11-08T20:48:34.645Z,12.52
2022-11-08T20:51:02.780Z,12.48
2022-11-08T20:53:32.199Z,12.45
2022-11-08T20:56:03.841Z,12.43
2022-11-08T20:58:32.410Z,12.40
2022-11-08T21:01:00.333Z,12.42
2022-11-08T21:03:28.326Z,12.41
2022-11-08T21:06:00.738Z,12.39
2022-11-08T21:11:15.294Z,12.37
2022-11-08T21:13:43.681Z,12.36
2022-11-08T21:16:29.440Z,12.37
2022-11-08T21:18:57.613Z,12.38
2022-11-08T21:21:25.094Z,12.37
2022-11-08T21:23:51.784Z,12.34
2022-11-08T21:26:19.299Z,12.35
2022-11-08T21:28:46.438Z,12.34
2022-11-08T21:31:13.769Z,12.34
2022-11-08T21:33:40.550Z,12.37
2022-11-08T21:36:08.791Z,12.34
2022-11-08T21:38:37.378Z,12.32
2022-11-08T21:41:05.934Z,12.33
2022-11-08T21:43:43.375Z,12.31
2022-11-08T21:46:18.853Z,12.33
2022-11-08T21:48:46.081Z,12.32
2022-11-08T21:51:13.196Z,12.34
2022-11-08T21:53:48.143Z,12.35
2022-11-08T21:56:21.015Z,12.34
2022-11-08T21:58:47.531Z,12.35
2022-11-08T22:01:14.162Z,12.35
2022-11-08T22:03:40.691Z,12.34
2022-11-08T22:06:07.426Z,12.31
2022-11-08T22:08:33.957Z,12.31
2022-11-08T22:11:00.498Z,12.31
2022-11-08T22:13:27.892Z,12.33
2022-11-08T22:15:54.669Z,12.29
2022-11-08T22:18:36.379Z,12.31
2022-11-08T22:21:26.342Z,12.28
2022-11-08T22:23:52.884Z,12.29
2022-11-08T22:26:19.425Z,12.28
2022-11-08T22:28:45.961Z,12.22
2022-11-08T22:31:12.527Z,12.21
2022-11-08T22:33:39.096Z,12.21
2022-11-08T22:36:05.922Z,12.20
2022-11-08T22:38:32.410Z,12.20
2022-11-08T22:40:59.313Z,12.15
2022-11-08T22:43:25.869Z,12.12
2022-11-08T22:45:52.400Z,12.11
2022-11-08T22:48:19.329Z,12.11
2022-11-08T22:51:08.093Z,12.07
2022-11-08T22:53:35.405Z,12.06
2022-11-08T22:56:10.704Z,12.04
2022-11-08T22:58:38.604Z,11.99
2022-11-08T23:01:05.811Z,12.00
2022-11-08T23:03:32.326Z,12.01
2022-11-08T23:05:58.962Z,12.01
2022-11-08T23:08:26.933Z,11.99
2022-11-08T23:11:12.873Z,12.01
2022-11-08T23:13:58.540Z,12.01
2022-11-08T23:16:38.041Z,12.01
2022-11-08T23:19:38.596Z,11.97
2022-11-08T23:22:25.799Z,11.93
2022-11-08T23:24:52.318Z,11.92
2022-11-08T23:27:38.714Z,11.93
2022-11-08T23:30:24.839Z,11.92
2022-11-08T23:32:51.810Z,11.89
2022-11-08T23:35:20.414Z,11.88
2022-11-08T23:37:47.378Z,11.85
2022-11-08T23:40:34.952Z,11.82
2022-11-08T23:43:31.354Z,11.80
2022-11-08T23:46:03.644Z,11.79
2022-11-08T23:48:30.123Z,11.79
2022-11-08T23:50:56.710Z,11.78
2022-11-08T23:53:27.398Z,11.76
2022-11-08T23:55:54.713Z,11.78
2022-11-08T23:58:22.165Z,11.79
